sensor_id;sensor_type;location;lat;lon;timestamp;temperature;humidity
19437;DHT22;9854;50.968;4.168;2023-09-07T00:00:35;21.80;99.90
19437;DHT22;9854;50.968;4.168;2023-09-07T00:03:01;21.80;99.90
19437;DHT22;9854;50.968;4.168;2023-09-07T00:05:27;21.70;99.90
19437;DHT22;9854;50.968;4.168;2023-09-07T00:07:53;21.60;99.90
19437;DHT22;9854;50.968;4.168;2023-09-07T00:10:18;21.70;99.90
19437;DHT22;9854;50.968;4.168;2023-09-07T00:12:44;21.60;99.90
19437;DHT22;9854;50.968;4.168;2023-09-07T00:15:10;21.60;99.90
19437;DHT22;9854;50.968;4.168;2023-09-07T00:17:36;21.50;99.90
19437;DHT22;9854;50.968;4.168;2023-09-07T00:20:02;21.50;99.90
19437;DHT22;9854;50.968;4.168;2023-09-07T00:22:36;21.50;99.90
19437;DHT22;9854;50.968;4.168;2023-09-07T00:25:01;21.50;99.90
19437;DHT22;9854;50.968;4.168;2023-09-07T00:27:29;21.40;99.90
19437;DHT22;9854;50.968;4.168;2023-09-07T00:29:55;21.40;99.90
19437;DHT22;9854;50.968;4.168;2023-09-07T00:32:20;21.40;99.90
19437;DHT22;9854;50.968;4.168;2023-09-07T00:34:46;21.30;99.90
19437;DHT22;9854;50.968;4.168;2023-09-07T00:37:12;21.20;99.90
19437;DHT22;9854;50.968;4.168;2023-09-07T00:39:37;21.20;99.90
19437;DHT22;9854;50.968;4.168;2023-09-07T00:42:03;21.20;99.90
19437;DHT22;9854;50.968;4.168;2023-09-07T00:44:29;21.20;99.90
19437;DHT22;9854;50.968;4.168;2023-09-07T00:46:56;21.20;99.90
19437;DHT22;9854;50.968;4.168;2023-09-07T00:49:23;21.20;99.90
19437;DHT22;9854;50.968;4.168;2023-09-07T00:51:50;21.20;99.90
19437;DHT22;9854;50.968;4.168;2023-09-07T00:54:16;21.20;99.90
19437;DHT22;9854;50.968;4.168;2023-09-07T00:56:42;21.20;99.90
19437;DHT22;9854;50.968;4.168;2023-09-07T00:59:08;21.10;99.90
19437;DHT22;9854;50.968;4.168;2023-09-07T01:01:35;21.10;99.90
19437;DHT22;9854;50.968;4.168;2023-09-07T01:04:01;21.10;99.90
19437;DHT22;9854;50.968;4.168;2023-09-07T01:09:24;20.90;99.90
19437;DHT22;9854;50.968;4.168;2023-09-07T01:11:52;20.80;99.90
19437;DHT22;9854;50.968;4.168;2023-09-07T01:14:18;20.90;99.90
19437;DHT22;9854;50.968;4.168;2023-09-07T01:16:44;21.00;99.90
19437;DHT22;9854;50.968;4.168;2023-09-07T01:19:10;20.90;99.90
19437;DHT22;9854;50.968;4.168;2023-09-07T01:21:38;20.90;99.90
19437;DHT22;9854;50.968;4.168;2023-09-07T01:24:06;20.80;99.90
19437;DHT22;9854;50.968;4.168;2023-09-07T01:26:36;20.70;99.90
19437;DHT22;9854;50.968;4.168;2023-09-07T01:29:06;20.70;99.90
19437;DHT22;9854;50.968;4.168;2023-09-07T01:31:36;20.60;99.90
19437;DHT22;9854;50.968;4.168;2023-09-07T01:34:02;20.50;99.90
19437;DHT22;9854;50.968;4.168;2023-09-07T01:36:28;20.40;99.90
19437;DHT22;9854;50.968;4.168;2023-09-07T01:38:54;20.40;99.90
19437;DHT22;9854;50.968;4.168;2023-09-07T01:41:20;20.40;99.90
19437;DHT22;9854;50.968;4.168;2023-09-07T01:43:45;20.40;99.90
19437;DHT22;9854;50.968;4.168;2023-09-07T01:46:11;20.30;99.90
19437;DHT22;9854;50.968;4.168;2023-09-07T01:48:36;20.30;99.90
19437;DHT22;9854;50.968;4.168;2023-09-07T01:51:02;20.20;99.90
19437;DHT22;9854;50.968;4.168;2023-09-07T01:53:28;20.20;99.90
19437;DHT22;9854;50.968;4.168;2023-09-07T01:55:54;20.20;99.90
19437;DHT22;9854;50.968;4.168;2023-09-07T01:58:21;20.20;99.90
19437;DHT22;9854;50.968;4.168;2023-09-07T02:00:47;20.10;99.90
19437;DHT22;9854;50.968;4.168;2023-09-07T02:03:12;20.10;99.90
19437;DHT22;9854;50.968;4.168;2023-09-07T02:05:39;20.10;99.90
19437;DHT22;9854;50.968;4.168;2023-09-07T02:08:04;20.10;99.90
19437;DHT22;9854;50.968;4.168;2023-09-07T02:10:30;20.10;99.90
19437;DHT22;9854;50.968;4.168;2023-09-07T02:12:56;20.00;99.90
19437;DHT22;9854;50.968;4.168;2023-09-07T02:15:23;19.90;99.90
19437;DHT22;9854;50.968;4.168;2023-09-07T02:17:49;19.90;99.90
19437;DHT22;9854;50.968;4.168;2023-09-07T02:20:14;19.90;99.90
19437;DHT22;9854;50.968;4.168;2023-09-07T02:22:40;19.90;99.90
19437;DHT22;9854;50.968;4.168;2023-09-07T02:25:06;19.90;99.90
19437;DHT22;9854;50.968;4.168;2023-09-07T02:27:33;19.80;99.90
19437;DHT22;9854;50.968;4.168;2023-09-07T02:29:59;19.80;99.90
19437;DHT22;9854;50.968;4.168;2023-09-07T02:32:25;19.80;99.90
19437;DHT22;9854;50.968;4.168;2023-09-07T02:34:50;19.70;99.90
19437;DHT22;9854;50.968;4.168;2023-09-07T02:37:16;19.70;99.90
19437;DHT22;9854;50.968;4.168;2023-09-07T02:39:42;19.60;99.90
19437;DHT22;9854;50.968;4.168;2023-09-07T02:42:08;19.70;99.90
19437;DHT22;9854;50.968;4.168;2023-09-07T02:44:33;19.60;99.90
19437;DHT22;9854;50.968;4.168;2023-09-07T02:46:59;19.70;99.90
19437;DHT22;9854;50.968;4.168;2023-09-07T02:49:24;19.70;99.90
19437;DHT22;9854;50.968;4.168;2023-09-07T02:51:50;19.60;99.90
19437;DHT22;9854;50.968;4.168;2023-09-07T02:54:16;19.60;99.90
19437;DHT22;9854;50.968;4.168;2023-09-07T02:56:41;19.60;99.90
19437;DHT22;9854;50.968;4.168;2023-09-07T02:59:07;19.60;99.90
19437;DHT22;9854;50.968;4.168;2023-09-07T03:01:33;19.50;99.90
19437;DHT22;9854;50.968;4.168;2023-09-07T03:03:59;19.50;99.90
19437;DHT22;9854;50.968;4.168;2023-09-07T03:06:25;19.50;99.90
19437;DHT22;9854;50.968;4.168;2023-09-07T03:08:51;19.40;99.90
19437;DHT22;9854;50.968;4.168;2023-09-07T03:11:17;19.30;99.90
19437;DHT22;9854;50.968;4.168;2023-09-07T03:13:43;19.30;99.90
19437;DHT22;9854;50.968;4.168;2023-09-07T03:16:09;19.40;99.90
19437;DHT22;9854;50.968;4.168;2023-09-07T03:18:34;19.40;99.90
19437;DHT22;9854;50.968;4.168;2023-09-07T03:21:02;19.40;99.90
19437;DHT22;9854;50.968;4.168;2023-09-07T03:23:32;19.40;99.90
19437;DHT22;9854;50.968;4.168;2023-09-07T03:25:58;19.40;99.90
19437;DHT22;9854;50.968;4.168;2023-09-07T03:28:24;19.30;99.90
19437;DHT22;9854;50.968;4.168;2023-09-07T03:30:51;19.30;99.90
19437;DHT22;9854;50.968;4.168;2023-09-07T03:33:17;19.20;99.90
19437;DHT22;9854;50.968;4.168;2023-09-07T03:35:42;19.20;99.90
19437;DHT22;9854;50.968;4.168;2023-09-07T03:38:08;19.20;99.90
19437;DHT22;9854;50.968;4.168;2023-09-07T03:40:34;19.20;99.90
19437;DHT22;9854;50.968;4.168;2023-09-07T03:42:59;19.20;99.90
19437;DHT22;9854;50.968;4.168;2023-09-07T03:45:25;19.20;99.90
19437;DHT22;9854;50.968;4.168;2023-09-07T03:47:51;19.10;99.90
19437;DHT22;9854;50.968;4.168;2023-09-07T03:50:16;19.10;99.90
19437;DHT22;9854;50.968;4.168;2023-09-07T03:52:42;19.10;99.90
19437;DHT22;9854;50.968;4.168;2023-09-07T03:55:08;19.10;99.90
19437;DHT22;9854;50.968;4.168;2023-09-07T03:57:33;19.20;99.90
19437;DHT22;9854;50.968;4.168;2023-09-07T03:59:59;19.20;99.90
19437;DHT22;9854;50.968;4.168;2023-09-07T04:02:25;19.20;99.90
19437;DHT22;9854;50.968;4.168;2023-09-07T04:04:52;19.10;99.90
19437;DHT22;9854;50.968;4.168;2023-09-07T04:07:18;19.10;99.90
19437;DHT22;9854;50.968;4.168;2023-09-07T04:09:45;18.90;99.90
19437;DHT22;9854;50.968;4.168;2023-09-07T04:12:11;18.90;99.90
19437;DHT22;9854;50.968;4.168;2023-09-07T04:14:36;18.90;99.90
19437;DHT22;9854;50.968;4.168;2023-09-07T04:17:03;18.90;99.90
19437;DHT22;9854;50.968;4.168;2023-09-07T04:19:28;18.90;99.90
19437;DHT22;9854;50.968;4.168;2023-09-07T04:21:54;18.90;99.90
19437;DHT22;9854;50.968;4.168;2023-09-07T04:24:20;18.90;99.90
19437;DHT22;9854;50.968;4.168;2023-09-07T04:26:47;18.80;99.90
19437;DHT22;9854;50.968;4.168;2023-09-07T04:29:13;18.80;99.90
19437;DHT22;9854;50.968;4.168;2023-09-07T04:31:38;18.80;99.90
19437;DHT22;9854;50.968;4.168;2023-09-07T04:34:04;18.70;99.90
19437;DHT22;9854;50.968;4.168;2023-09-07T04:36:30;18.70;99.90
19437;DHT22;9854;50.968;4.168;2023-09-07T04:38:55;18.70;99.90
19437;DHT22;9854;50.968;4.168;2023-09-07T04:41:21;18.70;99.90
19437;DHT22;9854;50.968;4.168;2023-09-07T04:43:47;18.70;99.90
19437;DHT22;9854;50.968;4.168;2023-09-07T04:46:13;18.70;99.90
19437;DHT22;9854;50.968;4.168;2023-09-07T04:48:40;18.70;99.90
19437;DHT22;9854;50.968;4.168;2023-09-07T04:51:09;18.70;99.90
19437;DHT22;9854;50.968;4.168;2023-09-07T04:53:38;18.70;99.90
19437;DHT22;9854;50.968;4.168;2023-09-07T04:56:05;18.60;99.90
19437;DHT22;9854;50.968;4.168;2023-09-07T04:58:30;18.60;99.90
19437;DHT22;9854;50.968;4.168;2023-09-07T05:01:07;18.50;99.90
19437;DHT22;9854;50.968;4.168;2023-09-07T05:03:36;18.60;99.90
19437;DHT22;9854;50.968;4.168;2023-09-07T05:06:04;18.60;99.90
19437;DHT22;9854;50.968;4.168;2023-09-07T05:08:29;18.60;99.90
19437;DHT22;9854;50.968;4.168;2023-09-07T05:10:57;18.60;99.90
19437;DHT22;9854;50.968;4.168;2023-09-07T05:13:23;18.70;99.90
19437;DHT22;9854;50.968;4.168;2023-09-07T05:15:50;18.80;99.90
19437;DHT22;9854;50.968;4.168;2023-09-07T05:18:17;18.80;99.90
19437;DHT22;9854;50.968;4.168;2023-09-07T05:20:43;18.60;99.90
19437;DHT22;9854;50.968;4.168;2023-09-07T05:23:14;18.70;99.90
19437;DHT22;9854;50.968;4.168;2023-09-07T05:25:51;18.60;99.90
19437;DHT22;9854;50.968;4.168;2023-09-07T05:28:21;18.60;99.90
19437;DHT22;9854;50.968;4.168;2023-09-07T05:30:46;18.60;99.90
19437;DHT22;9854;50.968;4.168;2023-09-07T05:33:14;18.50;99.90
19437;DHT22;9854;50.968;4.168;2023-09-07T05:35:40;18.60;99.90
19437;DHT22;9854;50.968;4.168;2023-09-07T05:38:07;18.70;99.90
19437;DHT22;9854;50.968;4.168;2023-09-07T05:40:37;18.70;99.90
19437;DHT22;9854;50.968;4.168;2023-09-07T05:43:03;18.70;99.90
19437;DHT22;9854;50.968;4.168;2023-09-07T05:45:43;18.70;99.90
19437;DHT22;9854;50.968;4.168;2023-09-07T05:48:09;18.70;99.90
19437;DHT22;9854;50.968;4.168;2023-09-07T05:50:36;18.60;99.90
19437;DHT22;9854;50.968;4.168;2023-09-07T05:53:03;18.60;99.90
19437;DHT22;9854;50.968;4.168;2023-09-07T05:55:29;18.70;99.90
19437;DHT22;9854;50.968;4.168;2023-09-07T05:57:55;18.80;99.90
19437;DHT22;9854;50.968;4.168;2023-09-07T06:00:21;18.90;99.90
19437;DHT22;9854;50.968;4.168;2023-09-07T06:02:47;18.90;99.90
19437;DHT22;9854;50.968;4.168;2023-09-07T06:05:13;18.90;99.90
19437;DHT22;9854;50.968;4.168;2023-09-07T06:07:39;18.90;99.90
19437;DHT22;9854;50.968;4.168;2023-09-07T06:10:05;19.10;99.90
19437;DHT22;9854;50.968;4.168;2023-09-07T06:12:31;19.10;99.90
19437;DHT22;9854;50.968;4.168;2023-09-07T06:14:57;19.10;99.90
19437;DHT22;9854;50.968;4.168;2023-09-07T06:17:23;19.30;99.90
19437;DHT22;9854;50.968;4.168;2023-09-07T06:19:48;19.30;99.90
19437;DHT22;9854;50.968;4.168;2023-09-07T06:22:14;19.30;99.90
19437;DHT22;9854;50.968;4.168;2023-09-07T06:24:40;19.40;99.90
19437;DHT22;9854;50.968;4.168;2023-09-07T06:27:06;19.40;99.90
19437;DHT22;9854;50.968;4.168;2023-09-07T06:29:31;19.50;99.90
19437;DHT22;9854;50.968;4.168;2023-09-07T06:31:57;19.60;99.90
19437;DHT22;9854;50.968;4.168;2023-09-07T06:34:24;19.60;99.90
19437;DHT22;9854;50.968;4.168;2023-09-07T06:36:50;19.60;99.90
19437;DHT22;9854;50.968;4.168;2023-09-07T06:39:16;19.70;99.90
19437;DHT22;9854;50.968;4.168;2023-09-07T06:41:41;19.90;99.90
19437;DHT22;9854;50.968;4.168;2023-09-07T06:44:07;20.00;99.90
19437;DHT22;9854;50.968;4.168;2023-09-07T06:46:33;20.10;99.90
19437;DHT22;9854;50.968;4.168;2023-09-07T06:48:59;20.20;99.90
19437;DHT22;9854;50.968;4.168;2023-09-07T06:51:24;20.40;99.90
19437;DHT22;9854;50.968;4.168;2023-09-07T06:53:50;20.50;99.90
19437;DHT22;9854;50.968;4.168;2023-09-07T06:56:16;20.60;99.90
19437;DHT22;9854;50.968;4.168;2023-09-07T06:58:41;20.80;99.90
19437;DHT22;9854;50.968;4.168;2023-09-07T07:01:07;20.90;99.90
19437;DHT22;9854;50.968;4.168;2023-09-07T07:03:33;20.90;99.90
19437;DHT22;9854;50.968;4.168;2023-09-07T07:05:59;20.90;99.90
19437;DHT22;9854;50.968;4.168;2023-09-07T07:08:25;21.00;99.90
19437;DHT22;9854;50.968;4.168;2023-09-07T07:10:51;21.10;99.90
19437;DHT22;9854;50.968;4.168;2023-09-07T07:13:18;21.20;99.90
19437;DHT22;9854;50.968;4.168;2023-09-07T07:15:43;21.30;99.90
19437;DHT22;9854;50.968;4.168;2023-09-07T07:18:09;21.40;99.90
19437;DHT22;9854;50.968;4.168;2023-09-07T07:20:36;21.50;99.90
19437;DHT22;9854;50.968;4.168;2023-09-07T07:23:02;21.60;99.90
19437;DHT22;9854;50.968;4.168;2023-09-07T07:25:28;21.60;99.90
19437;DHT22;9854;50.968;4.168;2023-09-07T07:27:53;21.70;99.90
19437;DHT22;9854;50.968;4.168;2023-09-07T07:30:19;21.80;99.90
19437;DHT22;9854;50.968;4.168;2023-09-07T07:32:45;21.90;99.90
19437;DHT22;9854;50.968;4.168;2023-09-07T07:35:10;22.00;99.90
19437;DHT22;9854;50.968;4.168;2023-09-07T07:37:36;22.20;99.90
19437;DHT22;9854;50.968;4.168;2023-09-07T07:40:02;22.20;99.90
19437;DHT22;9854;50.968;4.168;2023-09-07T07:42:28;22.30;99.90
19437;DHT22;9854;50.968;4.168;2023-09-07T07:44:53;22.40;99.90
19437;DHT22;9854;50.968;4.168;2023-09-07T07:47:19;22.50;99.90
19437;DHT22;9854;50.968;4.168;2023-09-07T07:49:45;22.60;99.90
19437;DHT22;9854;50.968;4.168;2023-09-07T07:52:10;22.60;99.90
19437;DHT22;9854;50.968;4.168;2023-09-07T07:54:36;22.60;99.90
19437;DHT22;9854;50.968;4.168;2023-09-07T07:57:02;22.80;99.90
19437;DHT22;9854;50.968;4.168;2023-09-07T07:59:28;23.00;99.90
19437;DHT22;9854;50.968;4.168;2023-09-07T08:01:53;23.00;99.90
19437;DHT22;9854;50.968;4.168;2023-09-07T08:04:19;22.90;99.90
19437;DHT22;9854;50.968;4.168;2023-09-07T08:06:45;23.00;99.90
19437;DHT22;9854;50.968;4.168;2023-09-07T08:09:11;23.10;99.90
19437;DHT22;9854;50.968;4.168;2023-09-07T08:11:36;23.30;99.90
19437;DHT22;9854;50.968;4.168;2023-09-07T08:14:03;23.30;99.90
19437;DHT22;9854;50.968;4.168;2023-09-07T08:16:29;23.40;99.90
19437;DHT22;9854;50.968;4.168;2023-09-07T08:18:55;23.50;99.90
19437;DHT22;9854;50.968;4.168;2023-09-07T08:21:20;23.60;99.90
19437;DHT22;9854;50.968;4.168;2023-09-07T08:23:46;23.60;99.90
19437;DHT22;9854;50.968;4.168;2023-09-07T08:26:11;23.60;99.90
19437;DHT22;9854;50.968;4.168;2023-09-07T08:28:39;23.70;99.90
19437;DHT22;9854;50.968;4.168;2023-09-07T08:31:05;23.80;99.90
19437;DHT22;9854;50.968;4.168;2023-09-07T08:33:32;23.90;99.90
19437;DHT22;9854;50.968;4.168;2023-09-07T08:36:05;23.90;99.90
19437;DHT22;9854;50.968;4.168;2023-09-07T08:38:31;24.00;99.90
19437;DHT22;9854;50.968;4.168;2023-09-07T08:41:01;24.10;99.90
19437;DHT22;9854;50.968;4.168;2023-09-07T08:43:33;24.20;99.90
19437;DHT22;9854;50.968;4.168;2023-09-07T08:46:19;24.30;99.90
19437;DHT22;9854;50.968;4.168;2023-09-07T08:48:47;24.40;99.90
19437;DHT22;9854;50.968;4.168;2023-09-07T08:51:18;24.50;99.90
19437;DHT22;9854;50.968;4.168;2023-09-07T08:53:44;24.60;99.90
19437;DHT22;9854;50.968;4.168;2023-09-07T08:56:14;24.70;99.90
19437;DHT22;9854;50.968;4.168;2023-09-07T08:58:41;24.80;99.90
19437;DHT22;9854;50.968;4.168;2023-09-07T09:01:07;24.90;99.90
19437;DHT22;9854;50.968;4.168;2023-09-07T09:03:35;25.00;99.90
19437;DHT22;9854;50.968;4.168;2023-09-07T09:06:01;25.00;99.90
19437;DHT22;9854;50.968;4.168;2023-09-07T09:08:27;25.10;99.90
19437;DHT22;9854;50.968;4.168;2023-09-07T09:11:01;25.20;99.90
19437;DHT22;9854;50.968;4.168;2023-09-07T09:13:32;25.20;99.90
19437;DHT22;9854;50.968;4.168;2023-09-07T09:16:00;25.30;99.90
19437;DHT22;9854;50.968;4.168;2023-09-07T09:18:26;25.40;99.90
19437;DHT22;9854;50.968;4.168;2023-09-07T09:20:55;25.50;99.90
19437;DHT22;9854;50.968;4.168;2023-09-07T09:23:20;25.60;99.90
19437;DHT22;9854;50.968;4.168;2023-09-07T09:25:48;25.70;99.90
19437;DHT22;9854;50.968;4.168;2023-09-07T09:28:14;25.70;99.90
19437;DHT22;9854;50.968;4.168;2023-09-07T09:30:41;25.80;99.90
19437;DHT22;9854;50.968;4.168;2023-09-07T09:33:10;25.90;99.90
19437;DHT22;9854;50.968;4.168;2023-09-07T09:35:37;26.10;99.90
19437;DHT22;9854;50.968;4.168;2023-09-07T09:38:04;26.20;99.90
19437;DHT22;9854;50.968;4.168;2023-09-07T09:40:33;26.20;99.90
19437;DHT22;9854;50.968;4.168;2023-09-07T09:43:01;26.20;99.90
19437;DHT22;9854;50.968;4.168;2023-09-07T09:45:27;26.40;99.90
19437;DHT22;9854;50.968;4.168;2023-09-07T09:47:54;26.50;99.90
19437;DHT22;9854;50.968;4.168;2023-09-07T09:50:25;26.50;99.90
19437;DHT22;9854;50.968;4.168;2023-09-07T09:52:52;26.60;99.90
19437;DHT22;9854;50.968;4.168;2023-09-07T09:55:22;26.60;99.90
19437;DHT22;9854;50.968;4.168;2023-09-07T09:57:48;26.80;99.90
19437;DHT22;9854;50.968;4.168;2023-09-07T10:00:15;26.90;99.90
19437;DHT22;9854;50.968;4.168;2023-09-07T10:02:54;27.00;99.90
19437;DHT22;9854;50.968;4.168;2023-09-07T10:05:21;27.10;99.90
19437;DHT22;9854;50.968;4.168;2023-09-07T10:07:49;27.20;99.90
19437;DHT22;9854;50.968;4.168;2023-09-07T10:10:19;27.30;99.90
19437;DHT22;9854;50.968;4.168;2023-09-07T10:12:52;27.30;99.90
19437;DHT22;9854;50.968;4.168;2023-09-07T10:17:47;27.60;99.90
19437;DHT22;9854;50.968;4.168;2023-09-07T10:20:16;27.80;99.90
19437;DHT22;9854;50.968;4.168;2023-09-07T10:22:43;27.90;99.90
19437;DHT22;9854;50.968;4.168;2023-09-07T10:25:22;28.00;99.90
19437;DHT22;9854;50.968;4.168;2023-09-07T10:27:48;28.20;99.90
19437;DHT22;9854;50.968;4.168;2023-09-07T10:30:14;28.20;99.90
19437;DHT22;9854;50.968;4.168;2023-09-07T10:32:48;28.30;99.90
19437;DHT22;9854;50.968;4.168;2023-09-07T10:35:18;28.40;99.90
19437;DHT22;9854;50.968;4.168;2023-09-07T10:37:45;28.50;99.90
19437;DHT22;9854;50.968;4.168;2023-09-07T10:40:22;28.60;99.90
19437;DHT22;9854;50.968;4.168;2023-09-07T10:42:48;28.60;99.90
19437;DHT22;9854;50.968;4.168;2023-09-07T10:45:15;28.70;99.90
19437;DHT22;9854;50.968;4.168;2023-09-07T10:47:45;28.80;99.90
19437;DHT22;9854;50.968;4.168;2023-09-07T10:50:14;29.00;99.90
19437;DHT22;9854;50.968;4.168;2023-09-07T10:52:41;29.10;99.90
19437;DHT22;9854;50.968;4.168;2023-09-07T10:55:10;29.20;99.90
19437;DHT22;9854;50.968;4.168;2023-09-07T10:57:44;29.30;99.90
19437;DHT22;9854;50.968;4.168;2023-09-07T11:00:11;29.50;99.90
19437;DHT22;9854;50.968;4.168;2023-09-07T11:02:42;29.50;99.90
19437;DHT22;9854;50.968;4.168;2023-09-07T11:05:09;29.60;99.90
19437;DHT22;9854;50.968;4.168;2023-09-07T11:07:36;29.70;99.90
19437;DHT22;9854;50.968;4.168;2023-09-07T11:10:06;29.80;99.90
19437;DHT22;9854;50.968;4.168;2023-09-07T11:12:37;29.90;99.90
19437;DHT22;9854;50.968;4.168;2023-09-07T11:15:04;30.00;99.90
19437;DHT22;9854;50.968;4.168;2023-09-07T11:17:30;30.00;99.90
19437;DHT22;9854;50.968;4.168;2023-09-07T11:19:55;30.10;99.90
19437;DHT22;9854;50.968;4.168;2023-09-07T11:22:21;30.30;99.90
19437;DHT22;9854;50.968;4.168;2023-09-07T11:24:48;30.30;99.90
19437;DHT22;9854;50.968;4.168;2023-09-07T11:27:16;30.30;99.90
19437;DHT22;9854;50.968;4.168;2023-09-07T11:29:42;30.40;99.90
19437;DHT22;9854;50.968;4.168;2023-09-07T11:32:09;30.50;99.90
19437;DHT22;9854;50.968;4.168;2023-09-07T11:34:35;30.50;99.90
19437;DHT22;9854;50.968;4.168;2023-09-07T11:37:03;30.70;99.90
19437;DHT22;9854;50.968;4.168;2023-09-07T11:39:29;30.80;99.90
19437;DHT22;9854;50.968;4.168;2023-09-07T11:41:55;30.90;99.90
19437;DHT22;9854;50.968;4.168;2023-09-07T11:44:21;31.00;99.90
19437;DHT22;9854;50.968;4.168;2023-09-07T11:46:46;31.10;99.90
19437;DHT22;9854;50.968;4.168;2023-09-07T11:49:12;31.10;99.90
19437;DHT22;9854;50.968;4.168;2023-09-07T11:51:39;31.10;99.90
19437;DHT22;9854;50.968;4.168;2023-09-07T11:54:04;31.10;99.90
19437;DHT22;9854;50.968;4.168;2023-09-07T11:56:30;31.10;99.90
19437;DHT22;9854;50.968;4.168;2023-09-07T11:58:56;31.30;99.90
19437;DHT22;9854;50.968;4.168;2023-09-07T12:01:22;31.40;99.90
19437;DHT22;9854;50.968;4.168;2023-09-07T12:03:48;31.50;99.90
19437;DHT22;9854;50.968;4.168;2023-09-07T12:06:13;31.60;99.90
19437;DHT22;9854;50.968;4.168;2023-09-07T12:08:42;31.70;99.90
19437;DHT22;9854;50.968;4.168;2023-09-07T12:11:08;31.80;99.90
19437;DHT22;9854;50.968;4.168;2023-09-07T12:13:36;31.80;99.90
19437;DHT22;9854;50.968;4.168;2023-09-07T12:16:02;31.90;99.90
19437;DHT22;9854;50.968;4.168;2023-09-07T12:18:28;32.00;99.90
19437;DHT22;9854;50.968;4.168;2023-09-07T12:20:53;32.00;99.90
19437;DHT22;9854;50.968;4.168;2023-09-07T12:23:19;32.10;99.90
19437;DHT22;9854;50.968;4.168;2023-09-07T12:25:45;32.20;99.90
19437;DHT22;9854;50.968;4.168;2023-09-07T12:28:15;32.10;99.90
19437;DHT22;9854;50.968;4.168;2023-09-07T12:30:41;32.10;99.90
19437;DHT22;9854;50.968;4.168;2023-09-07T12:33:10;32.20;99.90
19437;DHT22;9854;50.968;4.168;2023-09-07T12:35:35;32.40;99.90
19437;DHT22;9854;50.968;4.168;2023-09-07T12:38:01;32.50;99.90
19437;DHT22;9854;50.968;4.168;2023-09-07T12:40:27;32.50;99.90
19437;DHT22;9854;50.968;4.168;2023-09-07T12:42:52;32.40;99.90
19437;DHT22;9854;50.968;4.168;2023-09-07T12:45:18;32.60;99.90
19437;DHT22;9854;50.968;4.168;2023-09-07T12:47:44;32.60;99.90
19437;DHT22;9854;50.968;4.168;2023-09-07T12:50:09;32.90;99.90
19437;DHT22;9854;50.968;4.168;2023-09-07T12:52:35;33.00;99.90
19437;DHT22;9854;50.968;4.168;2023-09-07T12:55:05;33.00;99.90
19437;DHT22;9854;50.968;4.168;2023-09-07T12:57:31;33.00;99.90
19437;DHT22;9854;50.968;4.168;2023-09-07T12:59:57;33.10;99.90
19437;DHT22;9854;50.968;4.168;2023-09-07T13:02:22;33.10;99.90
19437;DHT22;9854;50.968;4.168;2023-09-07T13:04:48;33.10;99.90
19437;DHT22;9854;50.968;4.168;2023-09-07T13:07:14;33.10;99.90
19437;DHT22;9854;50.968;4.168;2023-09-07T13:09:43;33.30;99.90
19437;DHT22;9854;50.968;4.168;2023-09-07T13:12:10;33.30;99.90
19437;DHT22;9854;50.968;4.168;2023-09-07T13:14:36;33.50;99.90
19437;DHT22;9854;50.968;4.168;2023-09-07T13:17:01;33.50;99.90
19437;DHT22;9854;50.968;4.168;2023-09-07T13:19:27;33.60;99.90
19437;DHT22;9854;50.968;4.168;2023-09-07T13:21:54;33.60;99.90
19437;DHT22;9854;50.968;4.168;2023-09-07T13:24:20;33.60;99.90
19437;DHT22;9854;50.968;4.168;2023-09-07T13:26:48;33.70;99.90
19437;DHT22;9854;50.968;4.168;2023-09-07T13:29:14;33.70;99.90
19437;DHT22;9854;50.968;4.168;2023-09-07T13:31:39;33.80;99.90
19437;DHT22;9854;50.968;4.168;2023-09-07T13:34:05;33.90;99.90
19437;DHT22;9854;50.968;4.168;2023-09-07T13:36:30;34.00;99.90
19437;DHT22;9854;50.968;4.168;2023-09-07T13:38:56;34.10;99.90
19437;DHT22;9854;50.968;4.168;2023-09-07T13:41:23;34.00;99.90
19437;DHT22;9854;50.968;4.168;2023-09-07T13:43:48;34.10;99.90
19437;DHT22;9854;50.968;4.168;2023-09-07T13:46:14;34.30;99.90
19437;DHT22;9854;50.968;4.168;2023-09-07T13:48:40;34.40;99.90
19437;DHT22;9854;50.968;4.168;2023-09-07T13:51:05;34.40;99.90
19437;DHT22;9854;50.968;4.168;2023-09-07T13:53:31;34.40;99.90
19437;DHT22;9854;50.968;4.168;2023-09-07T13:55:57;34.40;99.90
19437;DHT22;9854;50.968;4.168;2023-09-07T13:58:22;34.50;99.90
19437;DHT22;9854;50.968;4.168;2023-09-07T14:00:48;34.60;99.90
19437;DHT22;9854;50.968;4.168;2023-09-07T14:03:16;34.80;99.90
19437;DHT22;9854;50.968;4.168;2023-09-07T14:05:42;34.90;99.90
19437;DHT22;9854;50.968;4.168;2023-09-07T14:08:07;34.80;99.90
19437;DHT22;9854;50.968;4.168;2023-09-07T14:10:33;34.90;99.90
19437;DHT22;9854;50.968;4.168;2023-09-07T14:12:58;34.80;99.90
19437;DHT22;9854;50.968;4.168;2023-09-07T14:15:24;35.00;99.90
19437;DHT22;9854;50.968;4.168;2023-09-07T14:17:50;35.00;99.90
19437;DHT22;9854;50.968;4.168;2023-09-07T14:20:15;35.30;99.90
19437;DHT22;9854;50.968;4.168;2023-09-07T14:22:41;35.20;99.90
19437;DHT22;9854;50.968;4.168;2023-09-07T14:25:07;35.20;99.90
19437;DHT22;9854;50.968;4.168;2023-09-07T14:27:33;35.20;99.90
19437;DHT22;9854;50.968;4.168;2023-09-07T14:29:59;35.50;99.90
19437;DHT22;9854;50.968;4.168;2023-09-07T14:32:24;35.50;99.90
19437;DHT22;9854;50.968;4.168;2023-09-07T14:34:50;35.70;99.90
19437;DHT22;9854;50.968;4.168;2023-09-07T14:37:16;35.80;99.90
19437;DHT22;9854;50.968;4.168;2023-09-07T14:39:41;35.60;99.90
19437;DHT22;9854;50.968;4.168;2023-09-07T14:42:12;35.70;99.90
19437;DHT22;9854;50.968;4.168;2023-09-07T14:44:42;35.90;99.90
19437;DHT22;9854;50.968;4.168;2023-09-07T14:47:07;35.90;99.90
19437;DHT22;9854;50.968;4.168;2023-09-07T14:49:33;35.90;99.90
19437;DHT22;9854;50.968;4.168;2023-09-07T14:51:59;36.20;99.90
19437;DHT22;9854;50.968;4.168;2023-09-07T14:54:25;36.10;99.90
19437;DHT22;9854;50.968;4.168;2023-09-07T14:56:50;36.30;99.90
19437;DHT22;9854;50.968;4.168;2023-09-07T14:59:16;36.40;99.90
19437;DHT22;9854;50.968;4.168;2023-09-07T15:01:42;36.40;99.90
19437;DHT22;9854;50.968;4.168;2023-09-07T15:04:08;36.40;99.90
19437;DHT22;9854;50.968;4.168;2023-09-07T15:06:33;36.20;99.90
19437;DHT22;9854;50.968;4.168;2023-09-07T15:08:59;36.40;99.90
19437;DHT22;9854;50.968;4.168;2023-09-07T15:11:25;36.50;99.90
19437;DHT22;9854;50.968;4.168;2023-09-07T15:13:51;36.60;99.90
19437;DHT22;9854;50.968;4.168;2023-09-07T15:16:18;36.90;99.90
19437;DHT22;9854;50.968;4.168;2023-09-07T15:18:44;37.10;99.90
19437;DHT22;9854;50.968;4.168;2023-09-07T15:21:10;37.20;99.90
19437;DHT22;9854;50.968;4.168;2023-09-07T15:23:36;37.30;99.90
19437;DHT22;9854;50.968;4.168;2023-09-07T15:26:01;37.40;99.90
19437;DHT22;9854;50.968;4.168;2023-09-07T15:28:27;37.90;99.90
19437;DHT22;9854;50.968;4.168;2023-09-07T15:30:53;38.00;99.90
19437;DHT22;9854;50.968;4.168;2023-09-07T15:33:20;38.70;99.90
19437;DHT22;9854;50.968;4.168;2023-09-07T15:35:46;39.30;99.90
19437;DHT22;9854;50.968;4.168;2023-09-07T15:38:12;39.80;99.90
19437;DHT22;9854;50.968;4.168;2023-09-07T15:40:37;40.40;99.90
19437;DHT22;9854;50.968;4.168;2023-09-07T15:43:04;40.80;99.90
19437;DHT22;9854;50.968;4.168;2023-09-07T15:45:30;40.70;99.90